sensor_id;sensor_type;location;lat;lon;timestamp;temperature;humidity
30379;DHT22;17168;49.164;9.060;2023-05-07T00:02:30;19.90;69.30
30379;DHT22;17168;49.164;9.060;2023-05-07T00:05:03;19.50;70.20
30379;DHT22;17168;49.164;9.060;2023-05-07T00:07:39;19.20;71.00
30379;DHT22;17168;49.164;9.060;2023-05-07T00:10:15;18.90;71.20
30379;DHT22;17168;49.164;9.060;2023-05-07T00:12:48;18.50;72.00
30379;DHT22;17168;49.164;9.060;2023-05-07T00:15:22;18.30;72.50
30379;DHT22;17168;49.164;9.060;2023-05-07T00:17:55;18.00;72.90
30379;DHT22;17168;49.164;9.060;2023-05-07T00:20:28;17.70;74.00
30379;DHT22;17168;49.164;9.060;2023-05-07T00:23:11;17.50;74.20
30379;DHT22;17168;49.164;9.060;2023-05-07T00:25:44;17.30;74.90
30379;DHT22;17168;49.164;9.060;2023-05-07T00:28:18;17.10;75.40
30379;DHT22;17168;49.164;9.060;2023-05-07T00:30:50;17.00;76.00
30379;DHT22;17168;49.164;9.060;2023-05-07T00:33:22;16.80;76.60
30379;DHT22;17168;49.164;9.060;2023-05-07T00:35:56;16.70;77.20
30379;DHT22;17168;49.164;9.060;2023-05-07T00:38:31;16.50;77.60
30379;DHT22;17168;49.164;9.060;2023-05-07T00:41:04;16.40;78.20
30379;DHT22;17168;49.164;9.060;2023-05-07T00:43:40;16.30;78.70
30379;DHT22;17168;49.164;9.060;2023-05-07T00:46:14;16.30;79.40
30379;DHT22;17168;49.164;9.060;2023-05-07T00:48:48;16.10;79.80
30379;DHT22;17168;49.164;9.060;2023-05-07T00:51:22;16.10;80.50
30379;DHT22;17168;49.164;9.060;2023-05-07T00:54:01;16.00;81.20
30379;DHT22;17168;49.164;9.060;2023-05-07T00:56:35;16.00;82.20
30379;DHT22;17168;49.164;9.060;2023-05-07T00:59:08;16.00;83.10
30379;DHT22;17168;49.164;9.060;2023-05-07T01:01:41;16.00;83.50
30379;DHT22;17168;49.164;9.060;2023-05-07T01:04:14;15.90;84.30
30379;DHT22;17168;49.164;9.060;2023-05-07T01:06:48;15.90;84.60
30379;DHT22;17168;49.164;9.060;2023-05-07T01:09:25;15.90;85.10
30379;DHT22;17168;49.164;9.060;2023-05-07T01:11:58;15.80;85.50
30379;DHT22;17168;49.164;9.060;2023-05-07T01:14:31;15.80;85.20
30379;DHT22;17168;49.164;9.060;2023-05-07T01:17:05;15.70;86.20
30379;DHT22;17168;49.164;9.060;2023-05-07T01:19:38;15.70;86.80
30379;DHT22;17168;49.164;9.060;2023-05-07T01:22:11;15.70;87.50
30379;DHT22;17168;49.164;9.060;2023-05-07T01:24:51;15.60;88.30
30379;DHT22;17168;49.164;9.060;2023-05-07T01:27:25;15.60;89.00
30379;DHT22;17168;49.164;9.060;2023-05-07T01:29:58;15.50;89.30
30379;DHT22;17168;49.164;9.060;2023-05-07T01:32:33;15.50;90.00
30379;DHT22;17168;49.164;9.060;2023-05-07T01:35:12;15.50;90.20
30379;DHT22;17168;49.164;9.060;2023-05-07T01:37:48;15.40;90.50
30379;DHT22;17168;49.164;9.060;2023-05-07T01:40:24;15.40;90.70
30379;DHT22;17168;49.164;9.060;2023-05-07T01:42:58;15.40;90.80
30379;DHT22;17168;49.164;9.060;2023-05-07T01:45:31;15.40;90.90
30379;DHT22;17168;49.164;9.060;2023-05-07T01:48:07;15.40;91.10
30379;DHT22;17168;49.164;9.060;2023-05-07T01:50:41;15.30;91.30
30379;DHT22;17168;49.164;9.060;2023-05-07T01:56:45;15.30;92.10
30379;DHT22;17168;49.164;9.060;2023-05-07T01:59:21;15.30;92.20
30379;DHT22;17168;49.164;9.060;2023-05-07T02:01:54;15.20;92.40
30379;DHT22;17168;49.164;9.060;2023-05-07T02:04:28;15.20;92.60
30379;DHT22;17168;49.164;9.060;2023-05-07T02:07:01;15.20;92.70
30379;DHT22;17168;49.164;9.060;2023-05-07T02:09:33;15.20;93.10
30379;DHT22;17168;49.164;9.060;2023-05-07T02:12:09;15.20;93.20
30379;DHT22;17168;49.164;9.060;2023-05-07T02:14:43;15.20;93.30
30379;DHT22;17168;49.164;9.060;2023-05-07T02:17:16;15.20;93.30
30379;DHT22;17168;49.164;9.060;2023-05-07T02:19:48;15.10;93.60
30379;DHT22;17168;49.164;9.060;2023-05-07T02:22:21;15.10;93.80
30379;DHT22;17168;49.164;9.060;2023-05-07T02:24:56;15.10;94.00
30379;DHT22;17168;49.164;9.060;2023-05-07T02:27:31;15.10;94.20
30379;DHT22;17168;49.164;9.060;2023-05-07T02:30:05;15.10;94.60
30379;DHT22;17168;49.164;9.060;2023-05-07T02:32:38;15.10;94.70
30379;DHT22;17168;49.164;9.060;2023-05-07T02:35:13;15.10;94.90
30379;DHT22;17168;49.164;9.060;2023-05-07T02:37:46;15.00;94.90
30379;DHT22;17168;49.164;9.060;2023-05-07T02:40:19;15.00;94.80
30379;DHT22;17168;49.164;9.060;2023-05-07T02:42:55;14.90;94.80
30379;DHT22;17168;49.164;9.060;2023-05-07T02:45:27;14.90;94.90
30379;DHT22;17168;49.164;9.060;2023-05-07T02:48:00;14.80;95.00
30379;DHT22;17168;49.164;9.060;2023-05-07T02:50:33;14.80;94.80
30379;DHT22;17168;49.164;9.060;2023-05-07T02:53:06;14.70;94.90
30379;DHT22;17168;49.164;9.060;2023-05-07T02:55:38;14.60;95.10
30379;DHT22;17168;49.164;9.060;2023-05-07T02:58:16;14.60;95.20
30379;DHT22;17168;49.164;9.060;2023-05-07T03:00:48;14.50;95.50
30379;DHT22;17168;49.164;9.060;2023-05-07T03:03:21;14.50;95.70
30379;DHT22;17168;49.164;9.060;2023-05-07T03:05:53;14.50;95.80
30379;DHT22;17168;49.164;9.060;2023-05-07T03:08:26;14.50;96.10
30379;DHT22;17168;49.164;9.060;2023-05-07T03:10:59;14.40;96.30
30379;DHT22;17168;49.164;9.060;2023-05-07T03:13:36;14.40;96.40
30379;DHT22;17168;49.164;9.060;2023-05-07T03:16:09;14.40;96.50
30379;DHT22;17168;49.164;9.060;2023-05-07T03:18:43;14.40;96.70
30379;DHT22;17168;49.164;9.060;2023-05-07T03:21:15;14.40;96.80
30379;DHT22;17168;49.164;9.060;2023-05-07T03:23:48;14.30;96.90
30379;DHT22;17168;49.164;9.060;2023-05-07T03:26:21;14.30;97.10
30379;DHT22;17168;49.164;9.060;2023-05-07T03:28:56;14.20;97.20
30379;DHT22;17168;49.164;9.060;2023-05-07T03:31:29;14.20;97.10
30379;DHT22;17168;49.164;9.060;2023-05-07T03:34:01;14.20;97.40
30379;DHT22;17168;49.164;9.060;2023-05-07T03:36:34;14.10;97.30
30379;DHT22;17168;49.164;9.060;2023-05-07T03:39:06;14.10;97.60
30379;DHT22;17168;49.164;9.060;2023-05-07T03:41:38;14.10;97.70
30379;DHT22;17168;49.164;9.060;2023-05-07T03:44:13;14.10;97.90
30379;DHT22;17168;49.164;9.060;2023-05-07T03:46:46;14.00;98.10
30379;DHT22;17168;49.164;9.060;2023-05-07T03:49:19;14.00;98.40
30379;DHT22;17168;49.164;9.060;2023-05-07T03:51:51;14.00;98.60
30379;DHT22;17168;49.164;9.060;2023-05-07T03:54:25;14.00;98.80
30379;DHT22;17168;49.164;9.060;2023-05-07T03:56:58;14.00;98.90
30379;DHT22;17168;49.164;9.060;2023-05-07T03:59:34;13.90;99.20
30379;DHT22;17168;49.164;9.060;2023-05-07T04:02:06;13.90;99.40
30379;DHT22;17168;49.164;9.060;2023-05-07T04:04:38;13.90;99.40
30379;DHT22;17168;49.164;9.060;2023-05-07T04:07:11;13.90;99.40
30379;DHT22;17168;49.164;9.060;2023-05-07T04:09:44;13.90;99.60
30379;DHT22;17168;49.164;9.060;2023-05-07T04:12:17;13.90;99.60
30379;DHT22;17168;49.164;9.060;2023-05-07T04:14:53;13.90;99.70
30379;DHT22;17168;49.164;9.060;2023-05-07T04:17:26;14.00;99.90
30379;DHT22;17168;49.164;9.060;2023-05-07T04:19:59;14.00;99.90
30379;DHT22;17168;49.164;9.060;2023-05-07T04:22:31;14.00;99.90
30379;DHT22;17168;49.164;9.060;2023-05-07T04:25:04;14.00;99.90
30379;DHT22;17168;49.164;9.060;2023-05-07T04:27:37;14.10;99.90
30379;DHT22;17168;49.164;9.060;2023-05-07T04:30:15;14.10;99.90
30379;DHT22;17168;49.164;9.060;2023-05-07T04:32:48;14.10;99.90
30379;DHT22;17168;49.164;9.060;2023-05-07T04:35:21;14.10;99.90
30379;DHT22;17168;49.164;9.060;2023-05-07T04:37:55;14.10;99.90
30379;DHT22;17168;49.164;9.060;2023-05-07T04:40:27;14.10;99.90
30379;DHT22;17168;49.164;9.060;2023-05-07T04:43:01;14.10;99.90
30379;DHT22;17168;49.164;9.060;2023-05-07T04:45:36;14.20;99.90
30379;DHT22;17168;49.164;9.060;2023-05-07T04:48:09;14.20;99.90
30379;DHT22;17168;49.164;9.060;2023-05-07T04:50:41;14.20;99.90
30379;DHT22;17168;49.164;9.060;2023-05-07T04:53:14;14.30;99.90
30379;DHT22;17168;49.164;9.060;2023-05-07T04:55:48;14.30;99.90
30379;DHT22;17168;49.164;9.060;2023-05-07T04:58:20;14.30;99.90
30379;DHT22;17168;49.164;9.060;2023-05-07T05:00:56;14.40;99.90
30379;DHT22;17168;49.164;9.060;2023-05-07T05:03:28;14.40;99.90
30379;DHT22;17168;49.164;9.060;2023-05-07T05:06:03;14.40;99.90
30379;DHT22;17168;49.164;9.060;2023-05-07T05:08:36;14.50;99.90
30379;DHT22;17168;49.164;9.060;2023-05-07T05:11:08;14.50;99.90
30379;DHT22;17168;49.164;9.060;2023-05-07T05:13:41;14.60;99.90
30379;DHT22;17168;49.164;9.060;2023-05-07T05:16:17;14.60;99.90
30379;DHT22;17168;49.164;9.060;2023-05-07T05:18:50;14.60;99.90
30379;DHT22;17168;49.164;9.060;2023-05-07T05:21:24;14.70;99.90
30379;DHT22;17168;49.164;9.060;2023-05-07T05:23:58;14.70;99.90
30379;DHT22;17168;49.164;9.060;2023-05-07T05:26:31;14.80;99.90
30379;DHT22;17168;49.164;9.060;2023-05-07T05:29:04;14.80;99.90
30379;DHT22;17168;49.164;9.060;2023-05-07T05:31:40;14.80;99.90
30379;DHT22;17168;49.164;9.060;2023-05-07T05:34:13;14.90;99.90
30379;DHT22;17168;49.164;9.060;2023-05-07T05:36:46;14.90;99.90
30379;DHT22;17168;49.164;9.060;2023-05-07T05:39:19;15.00;99.90
30379;DHT22;17168;49.164;9.060;2023-05-07T05:41:52;15.00;99.90
30379;DHT22;17168;49.164;9.060;2023-05-07T05:44:26;15.00;99.80
30379;DHT22;17168;49.164;9.060;2023-05-07T05:47:02;15.00;99.70
30379;DHT22;17168;49.164;9.060;2023-05-07T05:49:35;15.10;99.60
30379;DHT22;17168;49.164;9.060;2023-05-07T05:52:07;15.10;99.60
30379;DHT22;17168;49.164;9.060;2023-05-07T05:54:42;15.10;99.50
30379;DHT22;17168;49.164;9.060;2023-05-07T05:57:17;15.10;99.40
30379;DHT22;17168;49.164;9.060;2023-05-07T05:59:50;15.20;99.40
30379;DHT22;17168;49.164;9.060;2023-05-07T06:02:26;15.20;99.30
30379;DHT22;17168;49.164;9.060;2023-05-07T06:04:59;15.20;99.30
30379;DHT22;17168;49.164;9.060;2023-05-07T06:07:31;15.30;99.20
30379;DHT22;17168;49.164;9.060;2023-05-07T06:10:04;15.30;99.10
30379;DHT22;17168;49.164;9.060;2023-05-07T06:12:36;15.30;99.00
30379;DHT22;17168;49.164;9.060;2023-05-07T06:15:11;15.30;99.10
30379;DHT22;17168;49.164;9.060;2023-05-07T06:17:46;15.40;99.10
30379;DHT22;17168;49.164;9.060;2023-05-07T06:20:18;15.40;99.10
30379;DHT22;17168;49.164;9.060;2023-05-07T06:22:51;15.50;98.90
30379;DHT22;17168;49.164;9.060;2023-05-07T06:25:24;15.50;98.80
30379;DHT22;17168;49.164;9.060;2023-05-07T06:27:56;15.60;98.80
30379;DHT22;17168;49.164;9.060;2023-05-07T06:30:28;15.60;99.00
30379;DHT22;17168;49.164;9.060;2023-05-07T06:33:04;15.70;98.80
30379;DHT22;17168;49.164;9.060;2023-05-07T06:35:37;15.70;98.70
30379;DHT22;17168;49.164;9.060;2023-05-07T06:38:11;15.80;98.70
30379;DHT22;17168;49.164;9.060;2023-05-07T06:40:48;15.80;98.60
30379;DHT22;17168;49.164;9.060;2023-05-07T06:43:21;15.90;98.60
30379;DHT22;17168;49.164;9.060;2023-05-07T06:45:53;15.90;98.40
30379;DHT22;17168;49.164;9.060;2023-05-07T06:48:30;16.00;98.20
30379;DHT22;17168;49.164;9.060;2023-05-07T06:51:03;16.10;98.00
30379;DHT22;17168;49.164;9.060;2023-05-07T06:53:37;16.10;97.80
30379;DHT22;17168;49.164;9.060;2023-05-07T06:56:10;16.20;97.90
30379;DHT22;17168;49.164;9.060;2023-05-07T06:58:43;16.20;97.80
30379;DHT22;17168;49.164;9.060;2023-05-07T07:01:16;16.30;97.80
30379;DHT22;17168;49.164;9.060;2023-05-07T07:03:52;16.30;97.90
30379;DHT22;17168;49.164;9.060;2023-05-07T07:06:26;16.30;97.90
30379;DHT22;17168;49.164;9.060;2023-05-07T07:08:59;16.40;98.10
30379;DHT22;17168;49.164;9.060;2023-05-07T07:11:32;16.50;97.80
30379;DHT22;17168;49.164;9.060;2023-05-07T07:14:05;16.60;97.70
30379;DHT22;17168;49.164;9.060;2023-05-07T07:16:38;16.60;97.50
30379;DHT22;17168;49.164;9.060;2023-05-07T07:19:13;16.70;97.40
30379;DHT22;17168;49.164;9.060;2023-05-07T07:21:48;16.70;97.40
30379;DHT22;17168;49.164;9.060;2023-05-07T07:24:21;16.90;97.50
30379;DHT22;17168;49.164;9.060;2023-05-07T07:26:53;16.90;97.50
30379;DHT22;17168;49.164;9.060;2023-05-07T07:29:28;17.00;97.10
30379;DHT22;17168;49.164;9.060;2023-05-07T07:32:01;17.00;96.80
30379;DHT22;17168;49.164;9.060;2023-05-07T07:34:37;17.10;96.50
30379;DHT22;17168;49.164;9.060;2023-05-07T07:37:11;17.20;96.20
30379;DHT22;17168;49.164;9.060;2023-05-07T07:39:43;17.30;96.00
30379;DHT22;17168;49.164;9.060;2023-05-07T07:42:17;17.30;95.80
30379;DHT22;17168;49.164;9.060;2023-05-07T07:44:51;17.40;95.40
30379;DHT22;17168;49.164;9.060;2023-05-07T07:47:23;17.50;95.30
30379;DHT22;17168;49.164;9.060;2023-05-07T07:49:58;17.50;95.30
30379;DHT22;17168;49.164;9.060;2023-05-07T07:52:30;17.60;95.50
30379;DHT22;17168;49.164;9.060;2023-05-07T07:55:04;17.70;95.40
30379;DHT22;17168;49.164;9.060;2023-05-07T07:57:38;17.80;94.90
30379;DHT22;17168;49.164;9.060;2023-05-07T08:00:12;17.80;94.40
30379;DHT22;17168;49.164;9.060;2023-05-07T08:02:45;17.90;94.20
30379;DHT22;17168;49.164;9.060;2023-05-07T08:05:22;18.00;94.00
30379;DHT22;17168;49.164;9.060;2023-05-07T08:07:55;18.20;94.00
30379;DHT22;17168;49.164;9.060;2023-05-07T08:10:27;18.30;93.90
30379;DHT22;17168;49.164;9.060;2023-05-07T08:13:01;18.30;93.80
30379;DHT22;17168;49.164;9.060;2023-05-07T08:15:36;18.40;93.30
30379;DHT22;17168;49.164;9.060;2023-05-07T08:18:09;18.50;92.70
30379;DHT22;17168;49.164;9.060;2023-05-07T08:20:44;18.60;92.40
30379;DHT22;17168;49.164;9.060;2023-05-07T08:23:17;18.70;92.10
30379;DHT22;17168;49.164;9.060;2023-05-07T08:25:49;18.80;91.70
30379;DHT22;17168;49.164;9.060;2023-05-07T08:28:23;18.80;91.60
30379;DHT22;17168;49.164;9.060;2023-05-07T08:30:57;18.90;91.60
30379;DHT22;17168;49.164;9.060;2023-05-07T08:33:32;19.00;91.50
30379;DHT22;17168;49.164;9.060;2023-05-07T08:36:07;19.10;91.10
30379;DHT22;17168;49.164;9.060;2023-05-07T08:38:40;19.10;91.00
30379;DHT22;17168;49.164;9.060;2023-05-07T08:41:19;19.20;90.70
30379;DHT22;17168;49.164;9.060;2023-05-07T08:43:57;19.30;90.40
30379;DHT22;17168;49.164;9.060;2023-05-07T08:46:31;19.30;90.00
30379;DHT22;17168;49.164;9.060;2023-05-07T08:49:04;19.40;89.20
30379;DHT22;17168;49.164;9.060;2023-05-07T08:51:42;19.40;88.80
30379;DHT22;17168;49.164;9.060;2023-05-07T08:54:17;19.50;88.70
30379;DHT22;17168;49.164;9.060;2023-05-07T08:56:52;19.50;88.40
30379;DHT22;17168;49.164;9.060;2023-05-07T08:59:26;19.60;88.50
30379;DHT22;17168;49.164;9.060;2023-05-07T09:01:58;19.70;88.20
30379;DHT22;17168;49.164;9.060;2023-05-07T09:04:31;19.70;88.40
30379;DHT22;17168;49.164;9.060;2023-05-07T09:07:07;19.80;88.70
30379;DHT22;17168;49.164;9.060;2023-05-07T09:09:40;19.80;88.50
30379;DHT22;17168;49.164;9.060;2023-05-07T09:12:13;19.90;88.50
30379;DHT22;17168;49.164;9.060;2023-05-07T09:14:48;19.90;88.70
30379;DHT22;17168;49.164;9.060;2023-05-07T09:17:20;20.00;89.10
30379;DHT22;17168;49.164;9.060;2023-05-07T09:19:53;20.10;88.50
30379;DHT22;17168;49.164;9.060;2023-05-07T09:22:28;20.10;88.10
30379;DHT22;17168;49.164;9.060;2023-05-07T09:25:05;20.10;87.90
30379;DHT22;17168;49.164;9.060;2023-05-07T09:27:41;20.20;88.00
30379;DHT22;17168;49.164;9.060;2023-05-07T09:30:14;20.30;87.80
30379;DHT22;17168;49.164;9.060;2023-05-07T09:32:46;20.40;87.10
30379;DHT22;17168;49.164;9.060;2023-05-07T09:35:19;20.40;86.00
30379;DHT22;17168;49.164;9.060;2023-05-07T09:37:58;20.50;85.70
30379;DHT22;17168;49.164;9.060;2023-05-07T09:40:35;20.60;84.40
30379;DHT22;17168;49.164;9.060;2023-05-07T09:43:10;20.60;83.10
30379;DHT22;17168;49.164;9.060;2023-05-07T09:45:43;20.70;82.70
30379;DHT22;17168;49.164;9.060;2023-05-07T09:48:18;20.80;81.80
30379;DHT22;17168;49.164;9.060;2023-05-07T09:50:56;20.80;81.20
30379;DHT22;17168;49.164;9.060;2023-05-07T09:53:36;20.90;80.90
30379;DHT22;17168;49.164;9.060;2023-05-07T09:56:09;21.00;80.40
30379;DHT22;17168;49.164;9.060;2023-05-07T09:58:43;21.10;80.20
30379;DHT22;17168;49.164;9.060;2023-05-07T10:01:19;21.20;79.60
30379;DHT22;17168;49.164;9.060;2023-05-07T10:03:54;21.30;79.60
30379;DHT22;17168;49.164;9.060;2023-05-07T10:06:29;21.30;79.50
30379;DHT22;17168;49.164;9.060;2023-05-07T10:09:06;21.40;79.10
30379;DHT22;17168;49.164;9.060;2023-05-07T10:11:39;21.50;78.10
30379;DHT22;17168;49.164;9.060;2023-05-07T10:14:14;21.60;77.70
30379;DHT22;17168;49.164;9.060;2023-05-07T10:16:49;21.60;77.50
30379;DHT22;17168;49.164;9.060;2023-05-07T10:19:23;21.70;77.30
30379;DHT22;17168;49.164;9.060;2023-05-07T10:22:02;21.80;76.90
30379;DHT22;17168;49.164;9.060;2023-05-07T10:24:41;21.90;76.60
30379;DHT22;17168;49.164;9.060;2023-05-07T10:27:17;22.00;76.60
30379;DHT22;17168;49.164;9.060;2023-05-07T10:30:05;22.10;76.60
30379;DHT22;17168;49.164;9.060;2023-05-07T10:32:43;22.20;76.40
30379;DHT22;17168;49.164;9.060;2023-05-07T10:35:20;22.20;74.80
30379;DHT22;17168;49.164;9.060;2023-05-07T10:37:55;22.30;74.60
30379;DHT22;17168;49.164;9.060;2023-05-07T10:40:32;22.40;74.20
30379;DHT22;17168;49.164;9.060;2023-05-07T10:43:06;22.50;74.20
30379;DHT22;17168;49.164;9.060;2023-05-07T10:45:42;22.60;73.40
30379;DHT22;17168;49.164;9.060;2023-05-07T10:48:16;22.70;72.30
30379;DHT22;17168;49.164;9.060;2023-05-07T10:51:21;22.80;72.00
30379;DHT22;17168;49.164;9.060;2023-05-07T10:54:18;22.90;71.50
30379;DHT22;17168;49.164;9.060;2023-05-07T10:56:53;23.00;71.20
30379;DHT22;17168;49.164;9.060;2023-05-07T10:59:38;23.10;71.20
30379;DHT22;17168;49.164;9.060;2023-05-07T11:02:15;23.20;70.70
30379;DHT22;17168;49.164;9.060;2023-05-07T11:07:55;23.30;69.80
30379;DHT22;17168;49.164;9.060;2023-05-07T11:10:48;23.40;69.40
30379;DHT22;17168;49.164;9.060;2023-05-07T11:13:44;23.50;69.30
30379;DHT22;17168;49.164;9.060;2023-05-07T11:16:20;23.60;69.10
30379;DHT22;17168;49.164;9.060;2023-05-07T11:18:54;23.70;68.30
30379;DHT22;17168;49.164;9.060;2023-05-07T11:21:35;23.80;67.60
30379;DHT22;17168;49.164;9.060;2023-05-07T11:24:08;23.80;67.40
30379;DHT22;17168;49.164;9.060;2023-05-07T11:26:49;24.00;67.20
30379;DHT22;17168;49.164;9.060;2023-05-07T11:29:25;24.00;66.20
30379;DHT22;17168;49.164;9.060;2023-05-07T11:32:00;24.10;65.80
30379;DHT22;17168;49.164;9.060;2023-05-07T11:34:35;24.20;66.10
30379;DHT22;17168;49.164;9.060;2023-05-07T11:37:10;24.30;65.80
30379;DHT22;17168;49.164;9.060;2023-05-07T11:39:45;24.40;65.30
30379;DHT22;17168;49.164;9.060;2023-05-07T11:42:28;24.50;65.30
30379;DHT22;17168;49.164;9.060;2023-05-07T11:45:05;24.60;64.10
30379;DHT22;17168;49.164;9.060;2023-05-07T11:47:38;24.70;64.00
30379;DHT22;17168;49.164;9.060;2023-05-07T11:50:15;24.80;62.20
30379;DHT22;17168;49.164;9.060;2023-05-07T11:52:50;24.90;61.00
30379;DHT22;17168;49.164;9.060;2023-05-07T11:55:24;25.10;60.70
30379;DHT22;17168;49.164;9.060;2023-05-07T11:57:58;25.20;60.10
30379;DHT22;17168;49.164;9.060;2023-05-07T12:00:34;25.40;59.50
30379;DHT22;17168;49.164;9.060;2023-05-07T12:03:06;25.60;58.90
30379;DHT22;17168;49.164;9.060;2023-05-07T12:05:39;25.80;58.20
30379;DHT22;17168;49.164;9.060;2023-05-07T12:08:14;26.00;58.40
30379;DHT22;17168;49.164;9.060;2023-05-07T12:10:49;26.20;57.70
30379;DHT22;17168;49.164;9.060;2023-05-07T12:13:23;26.40;57.00
30379;DHT22;17168;49.164;9.060;2023-05-07T12:15:59;26.70;56.20
30379;DHT22;17168;49.164;9.060;2023-05-07T12:18:32;26.80;55.10
30379;DHT22;17168;49.164;9.060;2023-05-07T12:21:05;27.10;54.80
30379;DHT22;17168;49.164;9.060;2023-05-07T12:23:41;27.20;53.50
30379;DHT22;17168;49.164;9.060;2023-05-07T12:26:13;27.40;53.10
30379;DHT22;17168;49.164;9.060;2023-05-07T12:28:46;27.50;52.40
30379;DHT22;17168;49.164;9.060;2023-05-07T12:31:21;27.70;52.00
30379;DHT22;17168;49.164;9.060;2023-05-07T12:33:55;27.80;52.00
30379;DHT22;17168;49.164;9.060;2023-05-07T12:36:37;28.00;51.80
30379;DHT22;17168;49.164;9.060;2023-05-07T12:39:10;28.20;51.40
30379;DHT22;17168;49.164;9.060;2023-05-07T12:41:53;28.40;50.70
30379;DHT22;17168;49.164;9.060;2023-05-07T12:44:31;28.60;50.30
30379;DHT22;17168;49.164;9.060;2023-05-07T12:47:07;28.70;49.60
30379;DHT22;17168;49.164;9.060;2023-05-07T12:49:41;28.90;49.90
30379;DHT22;17168;49.164;9.060;2023-05-07T12:52:13;29.00;49.50
30379;DHT22;17168;49.164;9.060;2023-05-07T12:54:45;29.10;49.60
30379;DHT22;17168;49.164;9.060;2023-05-07T12:57:20;29.30;49.30
30379;DHT22;17168;49.164;9.060;2023-05-07T12:59:58;29.40;48.60
30379;DHT22;17168;49.164;9.060;2023-05-07T13:02:38;29.50;48.60
30379;DHT22;17168;49.164;9.060;2023-05-07T13:05:12;29.70;47.60
30379;DHT22;17168;49.164;9.060;2023-05-07T13:07:52;29.70;47.70
30379;DHT22;17168;49.164;9.060;2023-05-07T13:10:27;29.60;47.80
30379;DHT22;17168;49.164;9.060;2023-05-07T13:13:00;29.60;47.10
30379;DHT22;17168;49.164;9.060;2023-05-07T13:15:33;29.50;47.00
30379;DHT22;17168;49.164;9.060;2023-05-07T13:18:08;29.40;47.60
30379;DHT22;17168;49.164;9.060;2023-05-07T13:20:44;29.30;47.90
30379;DHT22;17168;49.164;9.060;2023-05-07T13:23:19;29.20;48.10
30379;DHT22;17168;49.164;9.060;2023-05-07T13:25:52;29.10;47.70
30379;DHT22;17168;49.164;9.060;2023-05-07T13:28:28;29.00;47.60
30379;DHT22;17168;49.164;9.060;2023-05-07T13:31:02;28.80;47.20
30379;DHT22;17168;49.164;9.060;2023-05-07T13:33:37;28.70;47.70
30379;DHT22;17168;49.164;9.060;2023-05-07T13:36:09;28.60;48.20
30379;DHT22;17168;49.164;9.060;2023-05-07T13:38:42;28.40;48.10
30379;DHT22;17168;49.164;9.060;2023-05-07T13:41:16;28.30;48.20
30379;DHT22;17168;49.164;9.060;2023-05-07T13:43:49;28.10;48.10
30379;DHT22;17168;49.164;9.060;2023-05-07T13:46:22;28.00;48.30
30379;DHT22;17168;49.164;9.060;2023-05-07T13:48:57;27.70;48.40
30379;DHT22;17168;49.164;9.060;2023-05-07T13:51:30;27.60;48.70
30379;DHT22;17168;49.164;9.060;2023-05-07T13:54:02;27.40;49.00
30379;DHT22;17168;49.164;9.060;2023-05-07T13:56:35;27.30;49.40
30379;DHT22;17168;49.164;9.060;2023-05-07T13:59:08;27.10;49.90
30379;DHT22;17168;49.164;9.060;2023-05-07T14:01:40;27.00;50.10
30379;DHT22;17168;49.164;9.060;2023-05-07T14:04:16;26.90;50.20
30379;DHT22;17168;49.164;9.060;2023-05-07T14:06:50;26.70;50.40
30379;DHT22;17168;49.164;9.060;2023-05-07T14:09:23;26.60;50.80
30379;DHT22;17168;49.164;9.060;2023-05-07T14:11:55;26.50;51.60
30379;DHT22;17168;49.164;9.060;2023-05-07T14:14:28;26.30;52.70
30379;DHT22;17168;49.164;9.060;2023-05-07T14:17:00;26.00;53.40
30379;DHT22;17168;49.164;9.060;2023-05-07T14:19:35;25.60;53.60
30379;DHT22;17168;49.164;9.060;2023-05-07T14:22:08;25.20;54.90
30379;DHT22;17168;49.164;9.060;2023-05-07T14:24:42;24.80;56.00
30379;DHT22;17168;49.164;9.060;2023-05-07T14:27:19;24.40;57.40
30379;DHT22;17168;49.164;9.060;2023-05-07T14:29:51;24.00;59.30
30379;DHT22;17168;49.164;9.060;2023-05-07T14:32:24;23.60;61.20
30379;DHT22;17168;49.164;9.060;2023-05-07T14:35:00;23.30;63.00
30379;DHT22;17168;49.164;9.060;2023-05-07T14:37:33;22.90;66.50
30379;DHT22;17168;49.164;9.060;2023-05-07T14:40:08;22.50;69.70
30379;DHT22;17168;49.164;9.060;2023-05-07T14:42:45;21.90;72.80
30379;DHT22;17168;49.164;9.060;2023-05-07T14:45:38;21.30;77.60
30379;DHT22;17168;49.164;9.060;2023-05-07T14:48:55;20.50;82.20
30379;DHT22;17168;49.164;9.060;2023-05-07T15:00:02;18.70;99.40
30379;DHT22;17168;49.164;9.060;2023-05-07T15:02:52;18.30;99.90
30379;DHT22;17168;49.164;9.060;2023-05-07T15:06:14;17.90;99.90
30379;DHT22;17168;49.164;9.060;2023-05-07T15:09:44;17.60;99.90
30379;DHT22;17168;49.164;9.060;2023-05-07T15:13:41;17.40;99.90
30379;DHT22;17168;49.164;9.060;2023-05-07T15:17:07;17.30;99.90
30379;DHT22;17168;49.164;9.060;2023-05-07T15:20:33;17.10;99.90
30379;DHT22;17168;49.164;9.060;2023-05-07T15:27:11;17.00;99.90
30379;DHT22;17168;49.164;9.060;2023-05-07T15:52:29;16.80;99.90
30379;DHT22;17168;49.164;9.060;2023-05-07T15:55:54;16.80;99.90
30379;DHT22;17168;49.164;9.060;2023-05-07T15:58:59;16.80;99.90
30379;DHT22;17168;49.164;9.060;2023-05-07T16:01:32;16.80;99.90
30379;DHT22;17168;49.164;9.060;2023-05-07T16:04:07;16.90;99.90
30379;DHT22;17168;49.164;9.060;2023-05-07T16:06:39;16.90;99.90
30379;DHT22;17168;49.164;9.060;2023-05-07T16:09:15;16.90;99.90
30379;DHT22;17168;49.164;9.060;2023-05-07T16:11:49;16.90;99.90
30379;DHT22;17168;49.164;9.060;2023-05-07T16:14:23;16.90;99.90
30379;DHT22;17168;49.164;9.060;2023-05-07T16:16:56;17.00;99.90
30379;DHT22;17168;49.164;9.060;2023-05-07T16:19:31;16.90;99.90
30379;DHT22;17168;49.164;9.060;2023-05-07T16:22:04;16.90;99.90
30379;DHT22;17168;49.164;9.060;2023-05-07T16:24:40;17.00;99.90
30379;DHT22;17168;49.164;9.060;2023-05-07T16:27:12;16.90;99.90
30379;DHT22;17168;49.164;9.060;2023-05-07T16:29:46;16.90;99.90
30379;DHT22;17168;49.164;9.060;2023-05-07T16:32:19;16.90;99.90
30379;DHT22;17168;49.164;9.060;2023-05-07T16:34:52;16.90;99.90
30379;DHT22;17168;49.164;9.060;2023-05-07T16:37:25;16.80;99.90
30379;DHT22;17168;49.164;9.060;2023-05-07T16:40:00;16.80;99.90
30379;DHT22;17168;49.164;9.060;2023-05-07T16:42:33;16.80;99.90
30379;DHT22;17168;49.164;9.060;2023-05-07T16:45:20;16.80;99.90
30379;DHT22;17168;49.164;9.060;2023-05-07T16:51:39;16.70;99.90
30379;DHT22;17168;49.164;9.060;2023-05-07T16:55:56;16.70;99.90
30379;DHT22;17168;49.164;9.060;2023-05-07T17:01:43;16.50;99.90
30379;DHT22;17168;49.164;9.060;2023-05-07T17:05:15;16.50;99.90
30379;DHT22;17168;49.164;9.060;2023-05-07T17:12:34;16.40;99.90
30379;DHT22;17168;49.164;9.060;2023-05-07T17:15:47;16.40;99.90
30379;DHT22;17168;49.164;9.060;2023-05-07T17:20:05;16.40;99.90
30379;DHT22;17168;49.164;9.060;2023-05-07T17:23:10;16.40;99.90